createdAt,value
2018-11-26T00:00:53.814Z,41.40
2018-11-26T00:03:22.418Z,40.13
2018-11-26T00:05:51.192Z,43.47
2018-11-26T00:08:21.967Z,42.83
2018-11-26T00:12:00.241Z,40.83
2018-11-26T00:14:29.451Z,41.27
2018-11-26T00:16:58.009Z,39.03
2018-11-26T00:19:26.577Z,41.10
2018-11-26T00:21:55.194Z,40.93
2018-11-26T00:24:23.748Z,40.93
2018-11-26T00:26:52.417Z,41.17
2018-11-26T00:29:20.976Z,42.47
2018-11-26T00:31:49.608Z,43.00
2018-11-26T00:34:18.244Z,41.40
2018-11-26T00:36:46.875Z,44.67
2018-11-26T00:39:15.545Z,41.17
2018-11-26T00:41:44.118Z,41.17
2018-11-26T00:44:12.830Z,42.20
2018-11-26T00:46:41.472Z,43.73
2018-11-26T00:49:10.139Z,42.03
2018-11-26T00:51:38.776Z,41.10
2018-11-26T00:54:07.404Z,42.83
2018-11-26T00:56:36.014Z,41.67
2018-11-26T00:59:04.705Z,40.93
2018-11-26T01:01:33.309Z,41.77
2018-11-26T01:04:01.911Z,41.67
2018-11-26T01:06:30.537Z,44.17
2018-11-26T01:08:59.166Z,41.13
2018-11-26T01:11:27.785Z,41.57
2018-11-26T01:13:56.415Z,44.00
2018-11-26T01:16:24.980Z,40.80
2018-11-26T01:18:53.635Z,43.47
2018-11-26T01:21:22.261Z,42.80
2018-11-26T01:23:50.939Z,41.30
2018-11-26T01:26:20.184Z,42.73
2018-11-26T01:28:48.787Z,41.90
2018-11-26T01:31:17.406Z,40.97
2018-11-26T01:33:46.646Z,41.70
2018-11-26T01:36:15.281Z,42.57
2018-11-26T01:38:43.857Z,40.93
2018-11-26T01:41:12.421Z,42.97
2018-11-26T01:43:41.003Z,43.23
2018-11-26T01:46:09.592Z,42.33
2018-11-26T01:48:38.172Z,43.37
2018-11-26T01:51:07.917Z,42.83
2018-11-26T01:53:36.488Z,42.43
2018-11-26T01:56:05.259Z,40.93
2018-11-26T01:58:33.899Z,40.27
2018-11-26T02:01:02.502Z,43.77
2018-11-26T02:03:31.078Z,40.43
2018-11-26T02:05:59.682Z,42.83
2018-11-26T02:08:28.351Z,41.77
2018-11-26T02:10:56.993Z,42.97
2018-11-26T02:13:25.619Z,42.90
2018-11-26T02:15:56.035Z,42.77
2018-11-26T02:18:24.633Z,42.07
2018-11-26T02:20:53.188Z,41.93
2018-11-26T02:23:21.788Z,42.53
2018-11-26T02:25:50.419Z,40.83
2018-11-26T02:28:18.983Z,39.67
2018-11-26T02:30:48.421Z,42.90
2018-11-26T02:33:16.983Z,42.50
2018-11-26T02:35:46.508Z,43.00
2018-11-26T02:38:15.115Z,40.47
2018-11-26T02:40:43.760Z,42.53
2018-11-26T02:43:13.100Z,41.90
2018-11-26T02:45:41.714Z,40.97
2018-11-26T02:48:10.254Z,40.80
2018-11-26T02:50:38.833Z,42.33
2018-11-26T02:53:07.454Z,44.10
2018-11-26T02:55:36.049Z,44.20
2018-11-26T02:58:04.671Z,42.97
2018-11-26T03:00:33.237Z,43.23
2018-11-26T03:03:01.857Z,43.80
2018-11-26T03:05:30.678Z,43.03
2018-11-26T03:07:59.318Z,45.13
2018-11-26T03:10:27.991Z,44.57
2018-11-26T03:12:56.752Z,45.10
2018-11-26T03:15:25.383Z,46.87
2018-11-26T03:17:54.073Z,44.90
2018-11-26T03:20:22.689Z,47.47
2018-11-26T03:22:51.343Z,46.93
2018-11-26T03:25:19.955Z,47.17
2018-11-26T03:27:48.612Z,47.70
2018-11-26T03:30:21.339Z,48.73
2018-11-26T03:32:50.102Z,46.87
2018-11-26T03:35:18.669Z,47.67
2018-11-26T03:37:47.254Z,48.00
2018-11-26T03:40:15.862Z,48.40
2018-11-26T03:42:44.739Z,46.33
2018-11-26T03:45:15.233Z,47.87
2018-11-26T03:47:43.935Z,47.00
2018-11-26T03:50:13.337Z,46.97
2018-11-26T03:52:43.077Z,47.87
2018-11-26T03:55:12.173Z,48.67
2018-11-26T03:57:41.773Z,44.57
2018-11-26T04:00:14.359Z,45.33
2018-11-26T04:02:42.956Z,46.70
2018-11-26T04:05:12.460Z,49.10
2018-11-26T04:07:41.243Z,47.83
2018-11-26T04:10:11.037Z,50.43
2018-11-26T04:12:39.700Z,49.83
2018-11-26T04:15:10.146Z,48.13
2018-11-26T04:17:38.748Z,48.17
2018-11-26T04:20:08.220Z,45.83
2018-11-26T04:22:36.842Z,44.83
2018-11-26T04:25:06.405Z,46.53
2018-11-26T04:27:35.029Z,44.50
2018-11-26T04:30:03.814Z,45.90
2018-11-26T04:32:32.401Z,45.17
2018-11-26T04:35:00.957Z,48.07
2018-11-26T04:37:29.557Z,47.63
2018-11-26T04:39:58.144Z,45.47
2018-11-26T04:42:26.770Z,45.87
2018-11-26T04:44:56.248Z,46.23
2018-11-26T04:47:24.886Z,44.50
2018-11-26T04:49:53.474Z,45.73
2018-11-26T04:52:22.058Z,46.67
2018-11-26T04:54:50.739Z,44.03
2018-11-26T04:57:20.115Z,46.13
2018-11-26T04:59:48.733Z,45.07
2018-11-26T05:02:18.216Z,43.47
2018-11-26T05:04:46.789Z,46.47
2018-11-26T05:07:15.406Z,44.20
2018-11-26T05:09:44.060Z,45.57
2018-11-26T05:12:12.636Z,44.37
2018-11-26T05:14:41.297Z,46.87
2018-11-26T05:17:09.877Z,44.47
2018-11-26T05:19:38.441Z,43.73
2018-11-26T05:22:07.061Z,44.20
2018-11-26T05:24:35.650Z,44.80
2018-11-26T05:27:04.321Z,44.87
2018-11-26T05:29:32.992Z,45.40
2018-11-26T05:32:01.690Z,44.60
2018-11-26T05:34:30.294Z,46.67
2018-11-26T05:36:58.947Z,46.17
2018-11-26T05:39:27.540Z,45.60
2018-11-26T05:41:56.204Z,44.07
2018-11-26T05:44:24.881Z,42.93
2018-11-26T05:46:53.514Z,44.63
2018-11-26T05:49:22.903Z,45.17
2018-11-26T05:51:50.790Z,47.10
2018-11-26T05:54:19.363Z,44.20
2018-11-26T05:56:48.005Z,45.57
2018-11-26T05:59:17.289Z,45.10
2018-11-26T06:01:45.881Z,45.57
2018-11-26T06:04:14.473Z,46.00
2018-11-26T06:06:43.143Z,44.70
2018-11-26T06:09:11.902Z,46.80
2018-11-26T06:11:40.962Z,45.63
2018-11-26T06:14:10.354Z,45.87
2018-11-26T06:16:38.958Z,44.33
2018-11-26T06:19:07.716Z,44.80
2018-11-26T06:21:37.504Z,42.73
2018-11-26T06:24:07.233Z,46.17
2018-11-26T06:26:36.047Z,43.47
2018-11-26T06:29:05.385Z,43.87
2018-11-26T06:31:34.005Z,47.03
2018-11-26T06:34:02.638Z,44.20
2018-11-26T06:36:31.281Z,42.07
2018-11-26T06:38:59.948Z,42.47
2018-11-26T06:41:28.600Z,45.90
2018-11-26T06:43:57.193Z,44.23
2018-11-26T06:46:25.801Z,44.47
2018-11-26T06:48:54.424Z,42.37
2018-11-26T06:51:22.999Z,42.63
2018-11-26T06:53:51.655Z,44.33
2018-11-26T06:56:20.246Z,44.30
2018-11-26T06:58:48.856Z,43.40
2018-11-26T07:01:17.492Z,42.70
2018-11-26T07:03:46.994Z,44.60
2018-11-26T07:06:15.622Z,42.93
2018-11-26T07:08:44.222Z,43.57
2018-11-26T07:11:12.809Z,43.03
2018-11-26T07:13:41.497Z,45.03
2018-11-26T07:16:10.227Z,43.60
2018-11-26T07:18:38.856Z,45.83
2018-11-26T07:21:07.571Z,45.67
2018-11-26T07:23:36.203Z,44.67
2018-11-26T07:26:04.810Z,43.10
2018-11-26T07:28:33.505Z,41.83
2018-11-26T07:31:02.160Z,43.60
2018-11-26T07:33:31.483Z,42.83
2018-11-26T07:36:00.160Z,42.17
2018-11-26T07:38:28.803Z,45.67
2018-11-26T07:40:57.434Z,45.60
2018-11-26T07:43:26.117Z,44.37
2018-11-26T07:45:54.857Z,43.90
2018-11-26T07:48:23.530Z,43.50
2018-11-26T07:50:52.352Z,43.53
2018-11-26T07:53:21.227Z,42.67
2018-11-26T07:55:49.972Z,43.47
2018-11-26T07:58:18.693Z,43.63
2018-11-26T08:00:47.295Z,41.30
2018-11-26T08:03:15.833Z,43.70
2018-11-26T08:05:44.637Z,42.70
2018-11-26T08:08:13.261Z,40.87
2018-11-26T08:10:41.993Z,42.10
2018-11-26T08:13:10.688Z,42.73
2018-11-26T08:15:39.301Z,43.23
2018-11-26T08:18:07.980Z,41.30
2018-11-26T08:20:36.619Z,41.73
2018-11-26T08:23:05.717Z,42.37
2018-11-26T08:25:34.367Z,40.60
2018-11-26T08:28:03.045Z,41.03
2018-11-26T08:30:31.618Z,38.57
2018-11-26T08:33:32.853Z,40.90
2018-11-26T08:36:06.790Z,41.10
2018-11-26T08:38:40.728Z,39.97
2018-11-26T08:41:13.588Z,38.13
2018-11-26T08:43:44.243Z,41.27
2018-11-26T08:46:18.285Z,41.27
2018-11-26T08:49:23.676Z,39.47
2018-11-26T08:51:52.226Z,41.17
2018-11-26T08:54:20.993Z,39.27
2018-11-26T08:56:49.633Z,40.33
2018-11-26T08:59:18.368Z,38.77
2018-11-26T09:02:08.548Z,37.67
2018-11-26T09:04:41.401Z,40.53
2018-11-26T09:07:10.986Z,40.00
2018-11-26T09:09:39.626Z,37.77
2018-11-26T09:12:08.344Z,38.50
2018-11-26T09:14:37.096Z,39.00
2018-11-26T09:17:05.856Z,39.23
2018-11-26T09:19:34.453Z,41.13
2018-11-26T09:22:03.086Z,37.40
2018-11-26T09:24:31.721Z,37.53
2018-11-26T09:27:00.531Z,37.63
2018-11-26T09:29:30.201Z,37.87
2018-11-26T09:31:58.922Z,38.50
2018-11-26T09:34:27.574Z,38.57
2018-11-26T09:36:56.319Z,37.03
2018-11-26T09:39:24.902Z,37.30
2018-11-26T09:41:53.546Z,36.13
2018-11-26T09:44:22.140Z,38.80
2018-11-26T09:46:50.821Z,36.90
2018-11-26T09:49:19.433Z,36.33
2018-11-26T09:51:48.119Z,37.37
2018-11-26T09:54:16.764Z,36.63
2018-11-26T09:56:45.356Z,36.30
2018-11-26T09:59:15.830Z,36.07
2018-11-26T10:01:44.508Z,35.70
2018-11-26T10:04:13.091Z,35.90
2018-11-26T10:06:41.766Z,35.50
2018-11-26T10:09:10.781Z,36.40
2018-11-26T10:11:40.333Z,35.40
2018-11-26T10:14:13.330Z,34.10
2018-11-26T10:16:41.943Z,34.17
2018-11-26T10:19:11.137Z,35.53
2018-11-26T10:21:39.727Z,32.87
2018-11-26T10:24:08.315Z,34.90
2018-11-26T10:26:37.016Z,32.37
2018-11-26T10:29:05.718Z,33.27
2018-11-26T10:31:34.340Z,32.50
2018-11-26T10:34:03.142Z,32.43
2018-11-26T10:36:31.790Z,34.03
2018-11-26T10:39:00.427Z,31.77
2018-11-26T10:41:29.232Z,32.20
2018-11-26T10:43:57.881Z,32.80
2018-11-26T10:46:26.546Z,32.50
2018-11-26T10:48:55.181Z,31.50
2018-11-26T10:51:23.838Z,31.40
2018-11-26T10:53:52.539Z,32.03
2018-11-26T10:56:21.222Z,30.30
2018-11-26T10:58:49.867Z,29.87
2018-11-26T11:03:25.619Z,30.73
2018-11-26T11:05:54.966Z,29.90
2018-11-26T11:08:24.127Z,29.73
2018-11-26T11:10:52.889Z,31.27
2018-11-26T11:13:21.453Z,31.23
2018-11-26T11:15:50.937Z,31.60
2018-11-26T11:18:19.653Z,29.50
2018-11-26T11:20:48.278Z,30.17
2018-11-26T11:23:16.926Z,30.07
2018-11-26T11:25:45.534Z,29.10
2018-11-26T11:28:14.242Z,28.13
2018-11-26T11:30:42.921Z,29.77
2018-11-26T11:35:39.553Z,27.57
2018-11-26T11:38:08.166Z,29.97
2018-11-26T11:40:36.893Z,28.53
2018-11-26T11:43:06.074Z,27.90
2018-11-26T11:45:35.677Z,27.53
2018-11-26T11:48:04.373Z,29.20
2018-11-26T11:50:33.063Z,27.77
2018-11-26T11:53:01.787Z,27.63
2018-11-26T11:55:30.624Z,30.27
2018-11-26T11:57:59.279Z,28.70
2018-11-26T12:00:35.371Z,28.23
2018-11-26T12:03:06.078Z,27.77
2018-11-26T12:05:34.792Z,27.37
2018-11-26T12:08:03.460Z,27.93
2018-11-26T12:10:32.152Z,27.50
2018-11-26T12:13:00.784Z,27.10
2018-11-26T12:15:30.376Z,27.93
2018-11-26T12:17:59.004Z,26.30
2018-11-26T12:20:27.630Z,27.47
2018-11-26T12:22:56.279Z,26.73
2018-11-26T12:25:24.977Z,27.37
2018-11-26T12:27:55.307Z,27.67
2018-11-26T12:30:28.169Z,27.77
2018-11-26T12:32:56.861Z,27.27
2018-11-26T12:35:25.545Z,26.37
2018-11-26T12:37:54.874Z,26.57
2018-11-26T12:40:24.603Z,25.83
2018-11-26T12:42:55.221Z,26.70
2018-11-26T12:45:30.245Z,26.27
2018-11-26T12:47:58.949Z,26.17
2018-11-26T12:50:41.966Z,25.37
2018-11-26T12:53:10.805Z,26.43
2018-11-26T12:55:39.600Z,26.20
2018-11-26T12:58:08.378Z,25.40
2018-11-26T13:00:38.022Z,25.37
2018-11-26T13:03:10.348Z,24.30
2018-11-26T13:05:38.871Z,26.30
2018-11-26T13:08:08.225Z,26.00
2018-11-26T13:10:37.356Z,24.17
2018-11-26T13:13:06.913Z,28.47
2018-11-26T13:15:35.547Z,25.10
2018-11-26T13:18:04.220Z,23.93
2018-11-26T13:20:33.062Z,24.63
2018-11-26T13:23:02.310Z,24.60
2018-11-26T13:25:32.740Z,23.63
2018-11-26T13:28:02.452Z,23.17
2018-11-26T13:30:35.269Z,24.53
2018-11-26T13:33:06.211Z,24.40
2018-11-26T13:35:34.886Z,22.70
2018-11-26T13:38:03.712Z,24.13
2018-11-26T13:40:32.309Z,22.93
2018-11-26T13:43:01.511Z,23.43
2018-11-26T13:45:34.082Z,24.30
2018-11-26T13:48:03.334Z,24.17
2018-11-26T13:50:35.238Z,22.80
2018-11-26T13:53:05.399Z,23.07
2018-11-26T13:55:34.058Z,24.07
2018-11-26T13:58:02.790Z,23.87
2018-11-26T14:00:31.460Z,24.50
2018-11-26T14:03:00.082Z,23.93
2018-11-26T14:05:28.713Z,22.47
2018-11-26T14:07:57.360Z,24.53
2018-11-26T14:10:27.436Z,23.67
2018-11-26T14:13:13.054Z,24.57
2018-11-26T14:15:41.741Z,24.30
2018-11-26T14:18:10.361Z,23.87
2018-11-26T14:20:38.993Z,24.23
2018-11-26T14:23:07.901Z,23.73
2018-11-26T14:25:36.619Z,24.33
2018-11-26T14:28:06.245Z,23.10
2018-11-26T14:30:34.504Z,24.73
2018-11-26T14:33:06.253Z,24.27
2018-11-26T14:35:35.117Z,23.20
2018-11-26T14:38:05.637Z,25.17
2018-11-26T14:40:43.633Z,23.83
2018-11-26T14:43:12.275Z,23.90
2018-11-26T14:45:40.953Z,25.37
2018-11-26T14:48:09.753Z,24.70
2018-11-26T14:50:38.459Z,25.17
2018-11-26T14:53:08.713Z,25.13
2018-11-26T14:55:38.531Z,26.20
2018-11-26T14:58:11.507Z,27.23
2018-11-26T15:00:47.904Z,26.40
2018-11-26T15:03:23.113Z,26.20
2018-11-26T15:06:10.460Z,26.63
2018-11-26T15:08:45.705Z,26.63
2018-11-26T15:11:30.200Z,25.87
2018-11-26T15:14:08.885Z,26.97
2018-11-26T15:16:47.296Z,27.63
2018-11-26T15:19:22.629Z,28.03
2018-11-26T15:22:00.575Z,26.50
2018-11-26T15:24:29.369Z,27.40
2018-11-26T15:26:58.051Z,27.27
2018-11-26T15:29:28.268Z,27.27
2018-11-26T15:31:56.967Z,28.50
2018-11-26T15:34:25.575Z,27.57
2018-11-26T15:36:54.508Z,29.17
2018-11-26T15:39:23.158Z,28.43
2018-11-26T15:41:51.798Z,30.27
2018-11-26T15:44:20.470Z,28.90
2018-11-26T15:46:49.274Z,29.80
2018-11-26T15:49:17.960Z,29.50
2018-11-26T15:51:46.934Z,28.73
2018-11-26T15:54:15.615Z,28.60
2018-11-26T15:56:44.389Z,28.83
2018-11-26T15:59:13.008Z,28.87
2018-11-26T16:01:41.711Z,28.63
2018-11-26T16:04:10.414Z,29.73
2018-11-26T16:06:39.764Z,30.43
2018-11-26T16:09:11.505Z,28.33
2018-11-26T16:11:40.092Z,28.63
2018-11-26T16:14:08.822Z,27.27
2018-11-26T16:16:37.452Z,28.60
2018-11-26T16:19:06.410Z,28.80
2018-11-26T16:21:35.004Z,28.67
2018-11-26T16:24:04.912Z,28.20
2018-11-26T16:26:33.501Z,29.30
2018-11-26T16:29:02.192Z,28.57
2018-11-26T16:31:30.855Z,28.03
2018-11-26T16:33:59.529Z,29.23
2018-11-26T16:36:28.217Z,28.50
2018-11-26T16:38:56.854Z,31.03
2018-11-26T16:41:25.640Z,29.13
2018-11-26T16:43:54.916Z,29.73
2018-11-26T16:46:23.595Z,29.03
2018-11-26T16:48:52.234Z,29.33
2018-11-26T16:51:20.960Z,28.27
2018-11-26T16:53:49.640Z,28.97
2018-11-26T16:56:18.236Z,29.87
2018-11-26T16:58:46.920Z,30.00
2018-11-26T17:01:15.551Z,28.90
2018-11-26T17:03:44.175Z,29.07
2018-11-26T17:06:13.728Z,27.63
2018-11-26T17:08:42.477Z,29.13
2018-11-26T17:11:11.197Z,28.80
2018-11-26T17:13:39.855Z,28.27
2018-11-26T17:16:08.455Z,29.10
2018-11-26T17:18:37.481Z,29.47
2018-11-26T17:21:07.200Z,29.03
2018-11-26T17:23:35.838Z,28.27
2018-11-26T17:26:05.298Z,28.77
2018-11-26T17:28:33.934Z,28.20
2018-11-26T17:31:02.624Z,28.23
2018-11-26T17:33:31.312Z,28.33
2018-11-26T17:36:00.022Z,28.53
2018-11-26T17:38:28.687Z,27.13
2018-11-26T17:40:57.415Z,29.50
2018-11-26T17:43:26.185Z,28.10
2018-11-26T17:46:06.905Z,27.57
2018-11-26T17:48:35.503Z,28.13
2018-11-26T17:51:04.189Z,26.60
2018-11-26T17:53:32.870Z,27.83
2018-11-26T17:56:01.765Z,28.17
2018-11-26T17:58:30.385Z,28.70
2018-11-26T18:01:08.291Z,26.90
2018-11-26T18:03:36.879Z,28.33
2018-11-26T18:06:07.164Z,28.20
2018-11-26T18:08:35.740Z,29.27
2018-11-26T18:11:04.425Z,29.07
2018-11-26T18:13:35.294Z,28.00
2018-11-26T18:16:04.078Z,28.50
2018-11-26T18:18:32.796Z,28.57
2018-11-26T18:21:01.445Z,28.63
2018-11-26T18:23:30.547Z,29.83
2018-11-26T18:25:59.190Z,29.80
2018-11-26T18:28:28.224Z,29.33
2018-11-26T18:30:57.165Z,29.37
2018-11-26T18:33:25.780Z,29.60
2018-11-26T18:35:54.680Z,28.60
2018-11-26T18:38:23.372Z,29.23
2018-11-26T18:40:52.402Z,29.60
2018-11-26T18:43:21.131Z,29.37
2018-11-26T18:45:49.883Z,29.77
2018-11-26T18:48:18.503Z,29.17
2018-11-26T18:50:47.167Z,28.97
2018-11-26T18:53:16.591Z,29.23
2018-11-26T18:55:45.328Z,28.57
2018-11-26T18:58:14.024Z,28.43
2018-11-26T19:00:47.481Z,27.50
2018-11-26T19:03:20.055Z,27.10
2018-11-26T19:05:50.427Z,29.50
2018-11-26T19:08:19.171Z,27.47
2018-11-26T19:10:48.830Z,26.23
2018-11-26T19:13:19.713Z,28.53
2018-11-26T19:15:49.566Z,27.60
2018-11-26T19:18:21.377Z,28.37
2018-11-26T19:20:50.177Z,26.53
2018-11-26T19:23:18.918Z,25.30
2018-11-26T19:25:48.574Z,27.97
2018-11-26T19:28:20.460Z,26.73
2018-11-26T19:30:45.948Z,26.13
2018-11-26T19:33:14.616Z,25.93
2018-11-26T19:35:43.261Z,24.33
2018-11-26T19:38:12.220Z,24.80
2018-11-26T19:40:41.290Z,23.93
2018-11-26T19:43:10.622Z,24.07
2018-11-26T19:45:39.386Z,23.53
2018-11-26T19:48:09.216Z,23.37
2018-11-26T19:50:38.518Z,23.53
2018-11-26T19:53:10.050Z,24.47
2018-11-26T19:55:39.256Z,23.80
2018-11-26T19:58:08.827Z,24.87
2018-11-26T20:00:37.973Z,24.23
2018-11-26T20:03:20.914Z,22.00
2018-11-26T20:05:56.188Z,22.07
2018-11-26T20:08:24.894Z,22.93
2018-11-26T20:10:53.564Z,21.63
2018-11-26T20:13:22.268Z,22.10
2018-11-26T20:15:51.258Z,21.27
2018-11-26T20:18:19.892Z,21.00
2018-11-26T20:20:48.613Z,21.37
2018-11-26T20:23:17.365Z,20.87
2018-11-26T20:25:46.183Z,21.23
2018-11-26T20:28:19.112Z,20.17
2018-11-26T20:30:47.812Z,20.03
2018-11-26T20:33:16.477Z,20.40
2018-11-26T20:35:45.124Z,21.13
2018-11-26T20:38:14.990Z,19.73
2018-11-26T20:40:44.256Z,19.87
2018-11-26T20:43:13.742Z,18.60
2018-11-26T20:45:44.086Z,18.93
2018-11-26T20:48:13.622Z,19.63
2018-11-26T20:50:44.295Z,19.33
2018-11-26T20:53:13.038Z,19.80
2018-11-26T20:55:41.666Z,18.47
2018-11-26T20:58:10.263Z,18.53
2018-11-26T21:00:39.021Z,19.40
2018-11-26T21:03:11.303Z,18.80
2018-11-26T21:05:40.829Z,20.07
2018-11-26T21:08:09.451Z,19.33
2018-11-26T21:10:38.139Z,20.00
2018-11-26T21:13:06.946Z,19.17
2018-11-26T21:15:35.609Z,19.37
2018-11-26T21:18:08.199Z,19.10
2018-11-26T21:20:38.619Z,19.87
2018-11-26T21:23:11.886Z,19.20
2018-11-26T21:25:40.746Z,20.27
2018-11-26T21:28:09.502Z,19.07
2018-11-26T21:30:38.163Z,19.13
2018-11-26T21:33:06.849Z,19.90
2018-11-26T21:35:35.568Z,19.07
2018-11-26T21:38:04.487Z,19.70
2018-11-26T21:40:33.084Z,19.67
2018-11-26T21:43:01.733Z,19.47
2018-11-26T21:45:35.171Z,18.60
2018-11-26T21:48:03.934Z,19.37
2018-11-26T21:50:32.678Z,20.17
2018-11-26T21:53:01.350Z,19.70
2018-11-26T21:55:29.961Z,20.30
2018-11-26T21:57:58.623Z,19.93
2018-11-26T22:00:28.507Z,20.67
2018-11-26T22:02:57.737Z,19.30
2018-11-26T22:05:26.389Z,20.80
2018-11-26T22:07:56.538Z,21.07
2018-11-26T22:10:25.184Z,21.07
2018-11-26T22:12:54.898Z,21.13
2018-11-26T22:15:38.139Z,22.90
2018-11-26T22:18:07.408Z,20.37
2018-11-26T22:20:36.114Z,21.97
2018-11-26T22:23:05.233Z,21.13
2018-11-26T22:25:33.940Z,23.03
2018-11-26T22:28:03.555Z,21.13
2018-11-26T22:30:33.377Z,21.23
2018-11-26T22:33:01.985Z,21.63
2018-11-26T22:35:30.662Z,21.53
2018-11-26T22:37:59.488Z,19.53
2018-11-26T22:40:28.125Z,20.67
2018-11-26T22:42:56.834Z,21.07
2018-11-26T22:45:28.510Z,20.90
2018-11-26T22:48:13.762Z,20.57
2018-11-26T22:50:44.517Z,19.57
2018-11-26T22:53:14.286Z,19.90
2018-11-26T22:55:44.368Z,20.87
2018-11-26T22:58:13.886Z,21.53
2018-11-26T23:00:50.906Z,21.23
2018-11-26T23:03:24.016Z,20.93
2018-11-26T23:05:52.745Z,20.13
2018-11-26T23:08:21.389Z,21.17
2018-11-26T23:10:50.109Z,20.83
2018-11-26T23:13:19.456Z,20.70
2018-11-26T23:15:48.871Z,21.23
2018-11-26T23:18:17.625Z,21.43
2018-11-26T23:20:46.310Z,21.30
2018-11-26T23:23:15.894Z,20.20
2018-11-26T23:25:44.608Z,20.50
2018-11-26T23:28:13.884Z,19.83
2018-11-26T23:30:42.477Z,20.33
2018-11-26T23:33:11.151Z,21.13
2018-11-26T23:35:39.801Z,21.40
2018-11-26T23:38:08.445Z,19.90
2018-11-26T23:40:37.978Z,20.23
2018-11-26T23:43:09.888Z,20.73
2018-11-26T23:45:38.528Z,20.23
2018-11-26T23:48:07.308Z,20.23
2018-11-26T23:50:36.739Z,20.43
2018-11-26T23:53:06.679Z,19.83
2018-11-26T23:55:35.284Z,20.17
2018-11-26T23:58:06.558Z,20.37
